createdAt,value
2023-12-02T00:01:01.736Z,96219.09
2023-12-02T00:03:29.375Z,96223.13
2023-12-02T00:05:57.423Z,96219.50
2023-12-02T00:08:25.072Z,96227.16
2023-12-02T00:10:52.646Z,96219.25
2023-12-02T00:13:20.190Z,96218.72
2023-12-02T00:15:48.265Z,96226.94
2023-12-02T00:18:15.929Z,96221.81
2023-12-02T00:20:43.574Z,96220.72
2023-12-02T00:23:11.217Z,96220.94
2023-12-02T00:25:38.900Z,96226.75
2023-12-02T00:28:06.461Z,96221.50
2023-12-02T00:30:34.027Z,96222.31
2023-12-02T00:33:01.753Z,96221.63
2023-12-02T00:35:29.495Z,96227.72
2023-12-02T00:37:57.157Z,96232.63
2023-12-02T00:40:24.833Z,96235.25
2023-12-02T00:42:52.439Z,96243.97
2023-12-02T00:45:20.016Z,96250.38
2023-12-02T00:47:47.694Z,96243.19
2023-12-02T00:50:15.323Z,96249.78
2023-12-02T00:52:43.436Z,96258.13
2023-12-02T00:55:11.051Z,96257.97
2023-12-02T00:57:38.677Z,96257.59
2023-12-02T01:00:07.204Z,96263.94
2023-12-02T01:02:35.039Z,96263.81
2023-12-02T01:05:03.991Z,96269.88
2023-12-02T01:07:32.636Z,96259.69
2023-12-02T01:10:00.245Z,96263.69
2023-12-02T01:12:27.953Z,96245.63
2023-12-02T01:14:55.584Z,96247.28
2023-12-02T01:17:23.342Z,96263.59
2023-12-02T01:19:50.994Z,96267.47
2023-12-02T01:22:18.584Z,96263.72
2023-12-02T01:24:46.161Z,96259.84
2023-12-02T01:27:13.816Z,96264.53
2023-12-02T01:29:41.413Z,96253.94
2023-12-02T01:32:09.044Z,96259.44
2023-12-02T01:34:36.693Z,96266.22
2023-12-02T01:37:04.523Z,96270.78
2023-12-02T01:39:32.149Z,96276.97
2023-12-02T01:41:59.823Z,96290.25
2023-12-02T01:44:27.403Z,96290.09
2023-12-02T01:46:55.473Z,96286.25
2023-12-02T01:49:23.986Z,96287.38
2023-12-02T01:51:52.604Z,96282.38
2023-12-02T01:54:21.294Z,96266.50
2023-12-02T01:56:49.040Z,96271.34
2023-12-02T01:59:32.603Z,96282.97
2023-12-02T02:02:02.911Z,96285.16
2023-12-02T02:04:30.683Z,96287.78
2023-12-02T02:06:58.581Z,96291.78
2023-12-02T02:09:26.548Z,96294.84
2023-12-02T02:11:54.147Z,96293.47
2023-12-02T02:14:22.401Z,96306.00
2023-12-02T02:16:50.098Z,96303.66
2023-12-02T02:19:19.600Z,96307.00
2023-12-02T02:21:54.004Z,96304.19
2023-12-02T02:24:21.627Z,96297.88
2023-12-02T02:26:49.258Z,96298.44
2023-12-02T02:29:16.943Z,96297.31
2023-12-02T02:31:44.548Z,96299.09
2023-12-02T02:34:12.200Z,96290.50
2023-12-02T02:36:39.788Z,96296.59
2023-12-02T02:39:08.777Z,96310.94
2023-12-02T02:41:37.280Z,96303.50
2023-12-02T02:44:04.966Z,96304.59
2023-12-02T02:46:32.613Z,96305.03
2023-12-02T02:49:00.428Z,96309.44
2023-12-02T02:51:28.172Z,96313.31
2023-12-02T02:53:55.956Z,96323.53
2023-12-02T02:56:23.545Z,96323.25
2023-12-02T02:58:51.161Z,96315.66
2023-12-02T03:01:18.758Z,96318.69
2023-12-02T03:03:46.351Z,96321.75
2023-12-02T03:06:13.957Z,96312.06
2023-12-02T03:08:41.585Z,96316.06
2023-12-02T03:11:09.491Z,96319.94
2023-12-02T03:13:37.095Z,96322.16
2023-12-02T03:16:05.233Z,96319.25
2023-12-02T03:18:32.932Z,96313.63
2023-12-02T03:21:00.786Z,96319.56
2023-12-02T03:23:28.404Z,96321.47
2023-12-02T03:25:56.337Z,96315.66
2023-12-02T03:28:24.426Z,96320.47
2023-12-02T03:30:52.020Z,96320.22
2023-12-02T03:33:20.055Z,96324.34
2023-12-02T03:35:47.744Z,96330.03
2023-12-02T03:38:15.393Z,96331.00
2023-12-02T03:40:42.962Z,96329.34
2023-12-02T03:43:10.632Z,96327.41
2023-12-02T03:45:38.266Z,96330.59
2023-12-02T03:48:06.581Z,96322.16
2023-12-02T03:50:34.290Z,96330.44
2023-12-02T03:53:04.048Z,96338.28
2023-12-02T03:55:31.877Z,96344.75
2023-12-02T03:57:59.502Z,96345.19
2023-12-02T04:00:28.339Z,96346.28
2023-12-02T04:02:56.075Z,96345.31
2023-12-02T04:05:24.459Z,96343.97
2023-12-02T04:07:52.180Z,96357.75
2023-12-02T04:10:19.931Z,96359.97
2023-12-02T04:12:47.832Z,96363.13
2023-12-02T04:15:15.458Z,96358.88
2023-12-02T04:17:43.403Z,96366.16
2023-12-02T04:20:15.666Z,96371.13
2023-12-02T04:22:43.438Z,96376.22
2023-12-02T04:25:11.408Z,96376.22
2023-12-02T04:27:39.133Z,96385.78
2023-12-02T04:30:07.898Z,96383.97
2023-12-02T04:32:35.796Z,96382.59
2023-12-02T04:35:06.625Z,96387.03
2023-12-02T04:37:34.238Z,96397.22
2023-12-02T04:40:05.781Z,96408.03
2023-12-02T04:42:33.502Z,96414.63
2023-12-02T04:45:01.156Z,96419.31
2023-12-02T04:47:28.746Z,96422.63
2023-12-02T04:49:56.422Z,96428.00
2023-12-02T04:52:24.488Z,96425.59
2023-12-02T04:54:52.072Z,96421.28
2023-12-02T04:57:19.681Z,96432.59
2023-12-02T04:59:47.314Z,96435.09
2023-12-02T05:02:15.254Z,96443.41
2023-12-02T05:04:42.878Z,96445.00
2023-12-02T05:07:10.479Z,96445.31
2023-12-02T05:09:38.671Z,96448.44
2023-12-02T05:12:07.852Z,96452.91
2023-12-02T05:14:36.123Z,96453.44
2023-12-02T05:17:03.987Z,96448.06
2023-12-02T05:19:31.708Z,96455.00
2023-12-02T05:21:59.339Z,96457.22
2023-12-02T05:24:27.199Z,96458.56
2023-12-02T05:26:54.844Z,96462.53
2023-12-02T05:29:22.500Z,96462.28
2023-12-02T05:31:50.091Z,96465.84
2023-12-02T05:34:17.782Z,96462.78
2023-12-02T05:36:49.482Z,96476.41
2023-12-02T05:39:17.813Z,96479.81
2023-12-02T05:41:45.524Z,96482.94
2023-12-02T05:44:13.093Z,96481.53
2023-12-02T05:46:40.896Z,96485.09
2023-12-02T05:49:09.100Z,96485.97
2023-12-02T05:51:40.270Z,96500.72
2023-12-02T05:54:11.640Z,96493.25
2023-12-02T05:56:39.472Z,96505.34
2023-12-02T05:59:07.163Z,96509.09
2023-12-02T06:01:35.952Z,96510.13
2023-12-02T06:04:03.843Z,96508.91
2023-12-02T06:06:32.039Z,96513.56
2023-12-02T06:08:59.732Z,96509.59
2023-12-02T06:11:27.379Z,96514.31
2023-12-02T06:13:55.048Z,96518.09
2023-12-02T06:16:22.647Z,96526.78
2023-12-02T06:18:50.434Z,96530.81
2023-12-02T06:21:18.110Z,96531.38
2023-12-02T06:23:45.846Z,96529.34
2023-12-02T06:26:14.546Z,96532.84
2023-12-02T06:28:42.121Z,96531.59
2023-12-02T06:31:18.144Z,96530.69
2023-12-02T06:33:45.782Z,96534.59
2023-12-02T06:36:14.215Z,96537.91
2023-12-02T06:38:41.886Z,96544.94
2023-12-02T06:41:09.658Z,96539.72
2023-12-02T06:43:37.399Z,96543.16
2023-12-02T06:46:05.342Z,96546.34
2023-12-02T06:48:32.979Z,96550.19
2023-12-02T06:51:01.420Z,96556.38
2023-12-02T06:53:29.000Z,96552.34
2023-12-02T06:55:56.572Z,96560.28
2023-12-02T06:58:24.236Z,96566.69
2023-12-02T07:00:52.360Z,96571.09
2023-12-02T07:03:20.453Z,96569.13
2023-12-02T07:05:48.093Z,96578.59
2023-12-02T07:08:15.689Z,96577.13
2023-12-02T07:10:43.328Z,96583.56
2023-12-02T07:13:10.916Z,96590.78
2023-12-02T07:15:40.026Z,96592.00
2023-12-02T07:18:09.635Z,96591.47
2023-12-02T07:20:37.947Z,96595.63
2023-12-02T07:23:05.509Z,96606.78
2023-12-02T07:25:34.733Z,96607.28
2023-12-02T07:28:02.365Z,96614.91
2023-12-02T07:30:30.037Z,96615.38
2023-12-02T07:32:57.648Z,96610.38
2023-12-02T07:35:25.275Z,96618.13
2023-12-02T07:37:52.947Z,96618.06
2023-12-02T07:40:20.559Z,96621.44
2023-12-02T07:42:48.143Z,96627.97
2023-12-02T07:45:15.780Z,96629.19
2023-12-02T07:47:43.403Z,96634.63
2023-12-02T07:50:11.322Z,96652.47
2023-12-02T07:52:38.935Z,96651.53
2023-12-02T07:55:07.166Z,96662.22
2023-12-02T07:57:34.861Z,96666.97
2023-12-02T08:00:02.538Z,96669.25
2023-12-02T08:02:39.635Z,96674.50
2023-12-02T08:07:38.399Z,96679.94
2023-12-02T08:10:07.643Z,96672.69
2023-12-02T08:12:35.211Z,96676.25
2023-12-02T08:15:03.084Z,96681.50
2023-12-02T08:17:30.678Z,96675.69
2023-12-02T08:19:58.519Z,96685.41
2023-12-02T08:22:26.359Z,96689.56
2023-12-02T08:24:54.716Z,96691.72
2023-12-02T08:27:22.700Z,96696.13
2023-12-02T08:29:50.355Z,96705.06
2023-12-02T08:32:17.943Z,96702.31
2023-12-02T08:34:45.653Z,96702.91
2023-12-02T08:37:13.316Z,96712.50
2023-12-02T08:39:40.901Z,96713.22
2023-12-02T08:42:08.522Z,96729.16
2023-12-02T08:44:38.196Z,96725.22
2023-12-02T08:47:07.442Z,96735.72
2023-12-02T08:49:37.272Z,96740.19
2023-12-02T08:52:06.772Z,96744.06
2023-12-02T08:54:34.491Z,96747.94
2023-12-02T08:57:02.106Z,96750.81
2023-12-02T08:59:29.688Z,96764.25
2023-12-02T09:01:57.421Z,96765.66
2023-12-02T09:04:25.173Z,96759.63
2023-12-02T09:06:52.803Z,96764.88
2023-12-02T09:09:20.383Z,96777.25
2023-12-02T09:11:47.989Z,96774.63
2023-12-02T09:14:15.825Z,96781.28
2023-12-02T09:16:48.144Z,96785.47
2023-12-02T09:19:56.145Z,96788.91
2023-12-02T09:22:49.915Z,96799.25
2023-12-02T09:25:32.592Z,96799.72
2023-12-02T09:28:08.844Z,96808.78
2023-12-02T09:30:38.616Z,96810.91
2023-12-02T09:33:06.287Z,96816.03
2023-12-02T09:35:35.366Z,96824.28
2023-12-02T09:38:04.849Z,96823.72
2023-12-02T09:41:14.237Z,96833.13
2023-12-02T09:43:47.802Z,96828.59
2023-12-02T09:46:34.936Z,96840.66
2023-12-02T09:49:49.396Z,96838.56
2023-12-02T09:52:28.899Z,96847.38
2023-12-02T09:55:37.559Z,96842.53
2023-12-02T09:58:23.385Z,96836.16
2023-12-02T10:01:06.663Z,96834.22
2023-12-02T10:04:07.962Z,96838.06
2023-12-02T10:07:01.798Z,96831.56
2023-12-02T10:09:45.528Z,96837.28
2023-12-02T10:12:36.911Z,96839.44
2023-12-02T10:15:07.106Z,96837.78
2023-12-02T10:18:11.472Z,96838.50
2023-12-02T10:20:43.649Z,96849.38
2023-12-02T10:23:36.045Z,96840.34
2023-12-02T10:26:16.320Z,96847.19
2023-12-02T10:29:14.249Z,96849.94
2023-12-02T10:32:18.373Z,96844.09
2023-12-02T10:35:07.609Z,96847.66
2023-12-02T10:37:41.890Z,96850.28
2023-12-02T10:40:12.559Z,96862.97
2023-12-02T10:43:13.753Z,96858.03
2023-12-02T10:45:42.645Z,96866.25
2023-12-02T10:48:13.504Z,96866.28
2023-12-02T10:50:41.666Z,96864.38
2023-12-02T10:53:11.323Z,96866.53
2023-12-02T10:55:41.251Z,96871.25
2023-12-02T10:58:09.038Z,96870.19
2023-12-02T11:00:39.974Z,96878.31
2023-12-02T11:03:29.084Z,96881.81
2023-12-02T11:06:08.785Z,96889.44
2023-12-02T11:08:54.936Z,96887.53
2023-12-02T11:11:43.670Z,96887.09
2023-12-02T11:14:18.634Z,96900.66
2023-12-02T11:17:07.577Z,96907.09
2023-12-02T11:20:07.256Z,96903.19
2023-12-02T11:23:05.111Z,96901.59
2023-12-02T11:26:01.329Z,96903.91
2023-12-02T11:29:28.904Z,96915.81
2023-12-02T11:32:23.212Z,96919.59
2023-12-02T11:35:42.676Z,96920.09
2023-12-02T11:38:19.069Z,96933.63
2023-12-02T11:41:05.200Z,96936.09
2023-12-02T11:44:17.942Z,96940.69
2023-12-02T11:47:36.154Z,96940.56
2023-12-02T11:50:32.029Z,96950.09
2023-12-02T11:53:08.421Z,96952.34
2023-12-02T11:55:53.526Z,96957.94
2023-12-02T11:58:49.218Z,96957.28
2023-12-02T12:02:06.669Z,96962.41
2023-12-02T12:05:04.366Z,96969.25
2023-12-02T12:08:14.916Z,96973.16
2023-12-02T12:10:43.988Z,96981.47
2023-12-02T12:13:15.401Z,96979.19
2023-12-02T12:15:44.012Z,96981.72
2023-12-02T12:18:16.968Z,96990.13
2023-12-02T12:20:49.006Z,96990.25
2023-12-02T12:23:16.740Z,97005.00
2023-12-02T12:25:44.336Z,97013.44
2023-12-02T12:28:11.927Z,97006.72
2023-12-02T12:30:48.042Z,97010.41
2023-12-02T12:33:21.009Z,97018.94
2023-12-02T12:35:49.827Z,97018.41
2023-12-02T12:38:17.765Z,97020.97
2023-12-02T12:40:46.305Z,97020.00
2023-12-02T12:43:15.307Z,97031.44
2023-12-02T12:45:44.092Z,97026.69
2023-12-02T12:48:12.527Z,97042.69
2023-12-02T12:50:42.856Z,97038.44
2023-12-02T12:53:12.886Z,97049.53
2023-12-02T12:55:53.057Z,97047.31
2023-12-02T12:58:23.577Z,97056.16
2023-12-02T13:00:51.662Z,97064.94
2023-12-02T13:03:51.219Z,97072.06
2023-12-02T13:06:34.064Z,97075.06
2023-12-02T13:09:09.503Z,97081.16
2023-12-02T13:12:09.397Z,97079.19
2023-12-02T13:14:50.837Z,97093.19
2023-12-02T13:17:19.987Z,97100.78
2023-12-02T13:19:48.741Z,97102.28
2023-12-02T13:22:18.393Z,97115.88
2023-12-02T13:25:14.175Z,97119.84
2023-12-02T13:27:57.508Z,97128.38
2023-12-02T13:30:26.178Z,97128.75
2023-12-02T13:32:56.784Z,97126.50
2023-12-02T13:35:31.697Z,97133.75
2023-12-02T13:38:26.955Z,97140.03
2023-12-02T13:41:21.665Z,97139.84
2023-12-02T13:43:52.851Z,97135.44
2023-12-02T13:46:33.278Z,97154.66
2023-12-02T13:49:14.686Z,97155.41
2023-12-02T13:51:47.223Z,97166.50
2023-12-02T13:54:44.249Z,97161.97
2023-12-02T13:57:44.268Z,97179.34
2023-12-02T14:00:12.482Z,97176.44
2023-12-02T14:03:23.082Z,97178.94
2023-12-02T14:05:59.763Z,97181.91
2023-12-02T14:08:35.849Z,97190.50
2023-12-02T14:11:10.855Z,97197.22
2023-12-02T14:14:10.447Z,97207.13
2023-12-02T14:17:12.339Z,97198.97
2023-12-02T14:20:17.381Z,97211.03
2023-12-02T14:23:28.536Z,97211.19
2023-12-02T14:26:42.199Z,97216.44
2023-12-02T14:29:41.647Z,97227.47
2023-12-02T14:32:46.499Z,97238.22
2023-12-02T14:35:30.315Z,97239.94
2023-12-02T14:38:21.814Z,97249.84
2023-12-02T14:41:11.361Z,97255.38
2023-12-02T14:44:27.380Z,97259.84
2023-12-02T14:47:15.909Z,97271.63
2023-12-02T14:49:49.228Z,97278.06
2023-12-02T14:52:23.486Z,97284.19
2023-12-02T14:54:52.209Z,97280.91
2023-12-02T14:57:23.076Z,97292.00
2023-12-02T15:00:07.390Z,97301.75
2023-12-02T15:02:46.520Z,97308.41
2023-12-02T15:05:15.975Z,97308.09
2023-12-02T15:07:59.522Z,97310.81
2023-12-02T15:10:34.388Z,97319.84
2023-12-02T15:13:07.887Z,97317.44
2023-12-02T15:15:35.828Z,97325.97
2023-12-02T15:18:06.061Z,97332.75
2023-12-02T15:20:35.259Z,97343.13
2023-12-02T15:23:17.900Z,97350.38
2023-12-02T15:25:52.273Z,97356.38
2023-12-02T15:28:42.754Z,97352.06
2023-12-02T15:31:17.156Z,97347.78
2023-12-02T15:33:53.225Z,97356.56
2023-12-02T15:36:23.392Z,97358.88
2023-12-02T15:38:53.982Z,97365.94
2023-12-02T15:41:24.205Z,97375.09
2023-12-02T15:43:56.949Z,97373.59
2023-12-02T15:46:27.442Z,97386.56
2023-12-02T15:48:56.439Z,97391.69
2023-12-02T15:51:26.291Z,97381.53
2023-12-02T15:53:57.561Z,97397.03
2023-12-02T15:56:28.084Z,97392.16
2023-12-02T15:58:57.277Z,97404.97
2023-12-02T16:01:27.829Z,97406.63
2023-12-02T16:03:58.677Z,97407.16
2023-12-02T16:06:26.581Z,97418.28
2023-12-02T16:08:55.135Z,97420.44
2023-12-02T16:11:23.603Z,97429.97
2023-12-02T16:13:52.762Z,97430.34
2023-12-02T16:16:21.240Z,97436.78
2023-12-02T16:18:49.459Z,97439.84
2023-12-02T16:21:20.064Z,97439.66
2023-12-02T16:23:48.783Z,97442.47
2023-12-02T16:26:18.255Z,97451.25
2023-12-02T16:28:46.920Z,97461.97
2023-12-02T16:31:16.306Z,97460.19
2023-12-02T16:33:44.107Z,97458.53
2023-12-02T16:36:15.286Z,97469.00
2023-12-02T16:38:43.188Z,97478.97
2023-12-02T16:41:10.771Z,97482.69
2023-12-02T16:43:38.357Z,97484.09
2023-12-02T16:46:08.126Z,97500.78
2023-12-02T16:48:37.117Z,97505.75
2023-12-02T16:51:07.619Z,97492.78
2023-12-02T16:53:36.192Z,97497.34
2023-12-02T16:56:10.732Z,97500.88
2023-12-02T16:58:48.553Z,97507.72
2023-12-02T17:01:28.295Z,97508.06
2023-12-02T17:03:56.638Z,97515.91
2023-12-02T17:06:24.483Z,97522.63
2023-12-02T17:08:54.200Z,97525.38
2023-12-02T17:11:25.803Z,97520.28
2023-12-02T17:14:00.837Z,97535.91
2023-12-02T17:16:32.623Z,97532.28
2023-12-02T17:19:12.559Z,97548.97
2023-12-02T17:21:52.243Z,97545.59
2023-12-02T17:24:41.525Z,97547.97
2023-12-02T17:27:32.848Z,97554.75
2023-12-02T17:30:02.832Z,97558.47
2023-12-02T17:32:30.472Z,97567.34
2023-12-02T17:34:59.453Z,97565.78
2023-12-02T17:37:27.694Z,97568.47
2023-12-02T17:39:55.446Z,97578.75
2023-12-02T17:42:23.101Z,97579.78
2023-12-02T17:44:50.707Z,97588.19
2023-12-02T17:47:18.477Z,97587.25
2023-12-02T17:49:48.877Z,97587.53
2023-12-02T17:52:16.490Z,97592.94
2023-12-02T17:54:44.124Z,97591.03
2023-12-02T17:57:12.092Z,97595.13
2023-12-02T17:59:39.686Z,97590.00
2023-12-02T18:02:07.327Z,97595.34
2023-12-02T18:04:35.080Z,97604.09
2023-12-02T18:07:03.009Z,97606.53
2023-12-02T18:09:30.680Z,97612.75
2023-12-02T18:11:58.809Z,97607.09
2023-12-02T18:14:27.935Z,97621.31
2023-12-02T18:16:55.771Z,97627.09
2023-12-02T18:19:23.481Z,97622.31
2023-12-02T18:21:51.488Z,97635.13
2023-12-02T18:24:19.418Z,97636.81
2023-12-02T18:26:46.998Z,97628.13
2023-12-02T18:29:14.578Z,97633.28
2023-12-02T18:31:42.510Z,97636.28
2023-12-02T18:34:10.449Z,97644.72
2023-12-02T18:36:38.145Z,97643.53
2023-12-02T18:39:05.829Z,97653.63
2023-12-02T18:41:34.808Z,97659.63
2023-12-02T18:44:02.386Z,97666.50
2023-12-02T18:46:29.981Z,97668.00
2023-12-02T18:48:57.624Z,97669.00
2023-12-02T18:51:25.290Z,97661.94
2023-12-02T18:53:52.891Z,97664.94
2023-12-02T18:56:20.483Z,97675.41
2023-12-02T18:58:48.373Z,97686.53
2023-12-02T19:01:15.945Z,97682.22
2023-12-02T19:03:43.614Z,97692.22
2023-12-02T19:06:11.879Z,97698.94
2023-12-02T19:08:39.544Z,97700.66
2023-12-02T19:11:07.568Z,97702.84
2023-12-02T19:13:35.301Z,97702.59
2023-12-02T19:16:02.924Z,97702.50
2023-12-02T19:18:30.768Z,97711.19
2023-12-02T19:20:58.633Z,97713.88
2023-12-02T19:23:26.251Z,97714.91
2023-12-02T19:25:53.954Z,97709.03
2023-12-02T19:28:21.594Z,97711.81
2023-12-02T19:30:49.434Z,97714.31
2023-12-02T19:33:17.156Z,97707.28
2023-12-02T19:35:44.835Z,97713.19
2023-12-02T19:38:13.320Z,97717.22
2023-12-02T19:40:40.942Z,97716.69
2023-12-02T19:43:08.523Z,97719.88
2023-12-02T19:45:36.215Z,97727.34
2023-12-02T19:48:03.998Z,97728.97
2023-12-02T19:50:31.675Z,97741.28
2023-12-02T19:52:59.292Z,97735.19
2023-12-02T19:55:26.912Z,97744.75
2023-12-02T19:57:54.535Z,97745.50
2023-12-02T20:00:22.443Z,97750.72
2023-12-02T20:02:50.451Z,97745.41
2023-12-02T20:05:19.697Z,97756.53
2023-12-02T20:07:47.382Z,97762.50
2023-12-02T20:10:15.060Z,97760.81
2023-12-02T20:12:42.948Z,97775.47
2023-12-02T20:15:11.371Z,97776.22
2023-12-02T20:17:39.282Z,97784.06
2023-12-02T20:20:07.888Z,97787.16
2023-12-02T20:22:35.548Z,97785.00
2023-12-02T20:25:03.249Z,97783.03
2023-12-02T20:27:30.993Z,97787.25
2023-12-02T20:29:58.681Z,97787.25
2023-12-02T20:32:26.310Z,97796.75
2023-12-02T20:34:53.968Z,97800.13
2023-12-02T20:37:21.599Z,97806.13
2023-12-02T20:39:49.318Z,97813.09
2023-12-02T20:42:17.011Z,97818.31
2023-12-02T20:44:44.602Z,97824.47
2023-12-02T20:47:12.586Z,97824.22
2023-12-02T20:49:40.216Z,97830.56
2023-12-02T20:52:07.957Z,97829.81
2023-12-02T20:54:35.578Z,97832.94
2023-12-02T20:57:03.600Z,97841.59
2023-12-02T20:59:32.294Z,97842.63
2023-12-02T21:02:00.024Z,97835.72
2023-12-02T21:04:27.827Z,97832.94
2023-12-02T21:06:55.500Z,97838.81
2023-12-02T21:09:23.281Z,97841.41
2023-12-02T21:11:50.926Z,97837.06
2023-12-02T21:14:18.620Z,97841.53
2023-12-02T21:16:46.205Z,97845.13
2023-12-02T21:19:15.457Z,97852.00
2023-12-02T21:21:43.243Z,97853.56
2023-12-02T21:24:11.326Z,97855.34
2023-12-02T21:26:38.938Z,97856.63
2023-12-02T21:29:06.522Z,97862.53
2023-12-02T21:31:35.569Z,97857.78
2023-12-02T21:34:03.299Z,97864.88
2023-12-02T21:36:30.976Z,97865.81
2023-12-02T21:38:58.628Z,97880.56
2023-12-02T21:41:26.370Z,97876.69
2023-12-02T21:43:53.993Z,97884.97
2023-12-02T21:46:24.352Z,97882.91
2023-12-02T21:49:12.354Z,97888.16
2023-12-02T21:51:48.202Z,97891.44
2023-12-02T21:54:19.912Z,97883.59
2023-12-02T21:56:50.125Z,97888.50
2023-12-02T21:59:23.111Z,97900.81
2023-12-02T22:01:53.638Z,97902.31
2023-12-02T22:04:29.563Z,97900.78
2023-12-02T22:07:03.125Z,97912.75
2023-12-02T22:09:38.623Z,97910.00
2023-12-02T22:12:41.229Z,97912.09
2023-12-02T22:15:39.232Z,97907.97
2023-12-02T22:18:11.941Z,97912.00
2023-12-02T22:20:39.565Z,97910.34
2023-12-02T22:23:12.313Z,97921.69
2023-12-02T22:25:44.894Z,97917.09
2023-12-02T22:28:16.484Z,97920.94
2023-12-02T22:30:53.057Z,97922.97
2023-12-02T22:33:23.275Z,97930.38
2023-12-02T22:36:10.608Z,97935.81
2023-12-02T22:38:42.910Z,97940.84
2023-12-02T22:41:15.261Z,97937.31
2023-12-02T22:43:49.878Z,97934.56
2023-12-02T22:46:22.834Z,97936.84
2023-12-02T22:48:52.606Z,97940.22
2023-12-02T22:51:30.493Z,97950.47
2023-12-02T22:53:59.025Z,97953.97
2023-12-02T22:56:32.489Z,97950.41
2023-12-02T22:59:00.046Z,97957.41
2023-12-02T23:01:35.898Z,97955.63
2023-12-02T23:04:40.195Z,97961.13
2023-12-02T23:07:16.620Z,97953.97
2023-12-02T23:09:51.607Z,97961.13
2023-12-02T23:12:36.773Z,97963.25
2023-12-02T23:15:35.590Z,97957.81
2023-12-02T23:18:09.380Z,97958.44
2023-12-02T23:20:37.275Z,97968.63
2023-12-02T23:23:04.967Z,97968.56
2023-12-02T23:25:32.624Z,97971.25
2023-12-02T23:28:01.934Z,97966.69
2023-12-02T23:30:29.780Z,97965.78
2023-12-02T23:32:57.594Z,97967.63
2023-12-02T23:35:28.712Z,97969.66
2023-12-02T23:37:56.435Z,97970.16
2023-12-02T23:40:27.601Z,97972.69
2023-12-02T23:42:57.551Z,97975.56
2023-12-02T23:45:25.360Z,97971.94
2023-12-02T23:47:53.925Z,97978.25
2023-12-02T23:50:22.883Z,97988.53
2023-12-02T23:52:51.405Z,97981.63
2023-12-02T23:55:19.098Z,97989.41
2023-12-02T23:57:48.552Z,97985.75
